• Join FlightAware (Why Join?)
  • Login
  • US Flag 
02:22AM EDT


 

Airport Tracker/Info


-or-


 

Live Flight TrackerFlight Track Log ✈ CAY203 ✈ 02-Feb-2014 ✈ KTPA - MWCR / GCM

Flight Track Log - Related Links

Times and Time Zones

All times are in EST time to prevent confusion due to time zone crossing. See the CAY203 flight status page for this flight to view local times or setup timezone preferences in your user account.

Time Position Orientation Groundspeed Altitude Reporting Facility
EST Latitude Longitude Course Direction KTS MPH feet Rate Location/Type
04:34PM 27.9667 -82.5500 204° Southwest 190 219 800  Level Tampa TRACON
04:35PM 27.9333 -82.5667 204° Southwest 175 201 2,000 1,920 Climbing Tampa TRACON
04:36PM 27.8833 -82.5833 196° South 238 274 3,900 2,280 Climbing Tampa TRACON
04:38PM 27.7283 -82.5614 173° South 297 342 9,500 2,220 Climbing Miami Center
04:39PM 27.6547 -82.5250 156° South 291 335 11,300 2,520 Climbing Miami Center
04:40PM 27.5567 -82.4733 155° Southeast 325 374 14,600 3,060 Climbing Miami Center
04:41PM 27.4647 -82.4197 153° Southeast 352 405 17,500 2,580 Climbing Miami Center
04:42PM 27.3792 -82.3664 151° Southeast 384 442 19,800 1,980 Climbing Miami Center
04:43PM 27.2792 -82.3081 153° Southeast 401 461 21,500 2,340 Climbing Miami Center
04:44PM 27.1603 -82.2486 156° South 418 481 24,500 2,460 Climbing Miami Center
04:45PM 27.0492 -82.2108 163° South 429 494 26,500 2,100 Climbing Miami Center
04:46PM 26.9294 -82.1706 163° South 434 499 28,700 2,040 Climbing Miami Center
04:47PM 26.8142 -82.1328 164° South 434 499 30,600 1,800 Climbing Miami Center
04:48PM 26.6983 -82.0972 165° South 434 499 32,400 1,800 Climbing Miami Center
04:49PM 26.5831 -82.0550 162° South 434 499 34,200 1,260 Climbing Miami Center
04:50PM 26.4694 -82.0197 164° South 429 494 35,000 360 Climbing Miami Center
04:51PM 26.3583 -81.9756 160° South 429 494 35,000  Level Miami Center
04:52PM 26.2447 -81.9428 165° South 429 494 35,000  Level Miami Center
04:53PM 26.1392 -81.9106 165° South 421 484 35,000  Level Miami Center
04:54PM 26.0258 -81.8711 163° South 416 479 35,000  Level Miami Center
04:55PM 25.9122 -81.8342 164° South 416 479 35,000  Level Miami Center
04:56PM 25.7967 -81.7969 164° South 416 479 35,000  Level Miami Center
04:57PM 25.6850 -81.7600 163° South 421 484 35,000  Level Miami Center
04:58PM 25.5797 -81.7281 165° South 426 490 35,000  Level Miami Center
04:59PM 25.4681 -81.6892 163° South 432 497 35,000  Level Miami Center
05:00PM 25.3400 -81.6519 165° South 432 497 35,000  Level Miami Center
05:01PM 25.2283 -81.6153 163° South 427 491 35,000  Level Miami Center
05:02PM 25.1125 -81.5764 163° South 427 491 35,000  Level Miami Center
05:03PM 24.9969 -81.5400 164° South 432 497 35,000 -60 Level Miami Center
05:04PM 24.8936 -81.5064 164° South 438 504 34,900  Descending Miami Center
05:05PM 24.7778 -81.4700 164° South 438 504 35,000  Climbing Miami Center
05:06PM 24.6619 -81.4314 163° South 433 498 35,000  Level Miami Center
05:07PM 24.5461 -81.3950 164° South 433 498 35,000  Level Miami Center
05:08PM 24.4283 -81.3567 163° South 433 498 35,000  Level Miami Center
05:09PM 24.3144 -81.3206 164° South 433 498 35,000  Level Miami Center
05:10PM 24.1944 -81.2822 164° South 433 498 35,000  Level Miami Center
05:11PM 24.0756 -81.2781 178° South 433 498 35,000  Level Miami Center
05:13PM 23.9585 -81.2172 181° South  Level FlightAware Approximate
05:20PM 23.2188 -81.2271 181° South  Level FlightAware Approximate
05:21PM 23.1131 -81.2286 181° South  Level FlightAware Approximate
05:22PM 23.0074 -81.2300 181° South  Level FlightAware Approximate
05:23PM 22.9018 -81.2314 181° South  Level FlightAware Approximate
05:24PM 22.7961 -81.2328 181° South  Level FlightAware Approximate
05:25PM 22.6904 -81.2342 181° South  Level FlightAware Approximate
05:26PM 22.5847 -81.2356 181° South  Level FlightAware Approximate
05:27PM 22.4791 -81.2370 181° South  Level FlightAware Approximate
05:28PM 22.3734 -81.2383 181° South  Level FlightAware Approximate
05:29PM 22.2677 -81.2397 181° South  Level FlightAware Approximate
05:30PM 22.1621 -81.2411 181° South  Level FlightAware Approximate
05:31PM 22.0564 -81.2425 181° South  Level FlightAware Approximate
05:32PM 21.9507 -81.2439 181° South  Level FlightAware Approximate
05:33PM 21.8451 -81.2453 181° South  Level FlightAware Approximate
05:34PM 21.7394 -81.2467 181° South  Level FlightAware Approximate
05:35PM 21.6337 -81.2480 181° South  Level FlightAware Approximate
05:36PM 21.5280 -81.2494 181° South  Level FlightAware Approximate
05:37PM 21.4224 -81.2500 180° South  Level FlightAware Approximate
05:38PM 21.3167 -81.2500 180° South  Level FlightAware Approximate
05:39PM 21.2110 -81.2500 180° South  Level FlightAware Approximate
05:40PM 21.1053 -81.2500 180° South  Level FlightAware Approximate
05:41PM 21.0010 -81.2623 193° South  Level FlightAware Approximate
05:42PM 20.8958 -81.2667 180° South  Level FlightAware Approximate
05:43PM 20.7901 -81.2667 180° South  Level FlightAware Approximate
05:44PM 20.6844 -81.2667 180° South  Level FlightAware Approximate
05:45PM 20.5787 -81.2667 180° South  Level FlightAware Approximate
05:46PM 20.4730 -81.2667 180° South  Level FlightAware Approximate
05:47PM 20.3674 -81.2667 180° South  Level FlightAware Approximate
05:48PM 20.2617 -81.2667 180° South  Level FlightAware Approximate
05:49PM 20.1560 -81.2667 180° South  Level FlightAware Approximate
05:50PM 20.0503 -81.2667 180° South  Level FlightAware Approximate
05:51PM 19.9453 -81.2758 189° South  Level FlightAware Approximate
05:52PM 19.8403 -81.2879 184° South  Level FlightAware Approximate
05:53PM 19.7349 -81.2960 184° South  Level FlightAware Approximate
05:54PM 19.6298 -81.3067 187° South  Level FlightAware Approximate
05:55PM 19.5246 -81.3167 180° South  Level FlightAware Approximate
05:56PM 19.4204 -81.3333 180° South  Level FlightAware Approximate
05:57PM 19.3154 -81.3403 191° South  Level FlightAware Approximate
05:58PM 19.2928 -81.3577 191° South  Level Estimated
05:59PM 19.2928 -81.3577 191° South  Level Estimated
06:00PM 19.2928 -81.3577 191° South  Level Estimated
06:01PM 19.2928 -81.3577 191° South  Level Estimated
06:02PM 19.2928 -81.3577 191° South  Level Estimated
06:03PM 19.2928 -81.3577 191° South  Level Estimated
06:04PM 19.2928 -81.3577 191° South  Level Estimated
06:05PM 19.2928 -81.3577 191° South  Level Estimated
06:06PM 19.2928 -81.3577 191° South  Level Estimated
06:07PM 19.2928 -81.3577 191° South  Level Estimated